Terminal Aerodrome Forecast
Issued by NWS

Home | Current Version | Previous Version | Text Only | Print | Product List | Glossary On
Versions: 1 2 3 4 5 6 7 8 9 10 11 12 13 14 15 16 17 18 19 20 21 22 23 24 25 26 27 28 29 30 31
000
FTUS42 KMFL 300313 AAA
TAFFXE
TAF AMD
KFXE 300313Z 3003/3024 13006KT P6SM VCSH FEW020 BKN035 BKN250
     FM300800 17007KT P6SM -SHRA SCT020 BKN050 BKN100
     FM301500 16013KT P6SM VCSH SCT025 BKN040 BKN080=

USA.gov is the U.S. government's official web portal to all federal, state and local government web resources and services.